createdAt,value
2023-11-02T00:00:58.579Z,5.68
2023-11-02T00:01:58.601Z,5.64
2023-11-02T00:02:58.699Z,5.59
2023-11-02T00:03:58.663Z,5.61
2023-11-02T00:04:58.648Z,5.64
2023-11-02T00:05:58.688Z,5.56
2023-11-02T00:06:58.809Z,5.53
2023-11-02T00:07:58.681Z,5.47
2023-11-02T00:08:58.715Z,5.46
2023-11-02T00:09:58.723Z,5.44
2023-11-02T00:10:58.756Z,5.46
2023-11-02T00:11:58.785Z,5.47
2023-11-02T00:12:58.770Z,5.53
2023-11-02T00:13:58.793Z,5.54
2023-11-02T00:14:58.871Z,5.47
2023-11-02T00:15:58.859Z,5.50
2023-11-02T00:16:58.847Z,5.51
2023-11-02T00:17:59.013Z,5.51
2023-11-02T00:18:58.910Z,5.53
2023-11-02T00:19:58.929Z,5.51
2023-11-02T00:20:58.982Z,5.50
2023-11-02T00:21:58.974Z,5.46
2023-11-02T00:22:58.960Z,5.46
2023-11-02T00:23:58.997Z,5.39
2023-11-02T00:24:59.010Z,5.33
2023-11-02T00:25:59.155Z,5.35
2023-11-02T00:26:59.035Z,5.30
2023-11-02T00:27:59.061Z,5.28
2023-11-02T00:28:59.086Z,5.26
2023-11-02T00:29:59.125Z,5.21
2023-11-02T00:30:59.095Z,5.25
2023-11-02T00:31:59.126Z,5.25
2023-11-02T00:32:59.179Z,5.29
2023-11-02T00:33:59.257Z,5.28
2023-11-02T00:34:59.183Z,5.25
2023-11-02T00:35:59.206Z,5.23
2023-11-02T00:36:59.387Z,5.17
2023-11-02T00:37:59.224Z,5.23
2023-11-02T00:38:59.271Z,5.17
2023-11-02T00:39:59.247Z,5.15
2023-11-02T00:40:59.292Z,5.18
2023-11-02T00:41:59.286Z,5.15
2023-11-02T00:42:59.319Z,5.15
2023-11-02T00:43:59.340Z,5.12
2023-11-02T00:44:59.327Z,5.10
2023-11-02T00:45:59.367Z,5.08
2023-11-02T00:46:59.354Z,5.10
2023-11-02T00:47:59.444Z,5.12
2023-11-02T00:48:59.406Z,5.12
2023-11-02T00:49:59.413Z,5.12
2023-11-02T00:50:59.450Z,5.11
2023-11-02T00:51:59.459Z,5.11
2023-11-02T00:52:59.472Z,5.17
2023-11-02T00:53:59.510Z,5.18
2023-11-02T00:54:59.506Z,5.15
2023-11-02T00:55:59.509Z,5.14
2023-11-02T00:56:59.589Z,5.12
2023-11-02T00:57:59.570Z,5.05
2023-11-02T00:58:59.567Z,5.02
2023-11-02T00:59:59.649Z,4.99
2023-11-02T01:00:59.594Z,4.96
2023-11-02T01:01:59.643Z,4.93
2023-11-02T01:02:59.724Z,4.89
2023-11-02T01:03:59.672Z,4.86
2023-11-02T01:04:59.676Z,4.78
2023-11-02T01:05:59.792Z,4.77
2023-11-02T01:06:59.784Z,4.78
2023-11-02T01:07:59.728Z,4.75
2023-11-02T01:08:59.751Z,4.73
2023-11-02T01:09:59.758Z,4.74
2023-11-02T01:10:59.798Z,4.78
2023-11-02T01:11:59.844Z,4.84
2023-11-02T01:12:59.818Z,4.84
2023-11-02T01:13:59.848Z,4.77
2023-11-02T01:14:59.921Z,4.74
2023-11-02T01:15:59.885Z,4.71
2023-11-02T01:16:59.868Z,4.74
2023-11-02T01:17:59.975Z,4.73
2023-11-02T01:19:00.110Z,4.73
2023-11-02T01:19:59.928Z,4.68
2023-11-02T01:20:59.990Z,4.63
2023-11-02T01:21:59.956Z,4.66
2023-11-02T01:22:59.972Z,4.66
2023-11-02T01:24:00.019Z,4.70
2023-11-02T01:25:00.009Z,4.73
2023-11-02T01:26:00.019Z,4.67
2023-11-02T01:27:00.119Z,4.66
2023-11-02T01:28:00.095Z,4.63
2023-11-02T01:29:00.061Z,4.62
2023-11-02T01:30:00.155Z,4.56
2023-11-02T01:31:00.109Z,4.50
2023-11-02T01:32:00.124Z,4.53
2023-11-02T01:33:00.172Z,4.53
2023-11-02T01:34:00.476Z,4.55
2023-11-02T01:35:00.195Z,4.52
2023-11-02T01:36:00.206Z,4.48
2023-11-02T01:37:00.226Z,4.44
2023-11-02T01:38:00.221Z,4.48
2023-11-02T01:39:00.296Z,4.45
2023-11-02T01:40:00.269Z,4.45
2023-11-02T01:41:00.272Z,4.44
2023-11-02T01:42:00.340Z,4.50
2023-11-02T01:43:00.303Z,4.52
2023-11-02T01:44:00.349Z,4.48
2023-11-02T01:45:00.371Z,4.48
2023-11-02T01:46:00.368Z,4.49
2023-11-02T01:47:00.372Z,4.49
2023-11-02T01:48:00.487Z,4.49
2023-11-02T01:49:00.526Z,4.49
2023-11-02T01:50:00.491Z,4.42
2023-11-02T01:51:00.455Z,4.44
2023-11-02T01:52:00.471Z,4.42
2023-11-02T01:53:00.497Z,4.44
2023-11-02T01:54:00.514Z,4.48
2023-11-02T01:55:00.510Z,4.38
2023-11-02T01:56:00.538Z,4.44
2023-11-02T01:57:00.570Z,4.42
2023-11-02T01:58:00.588Z,4.42
2023-11-02T01:59:00.579Z,4.44
2023-11-02T02:00:00.659Z,4.44
2023-11-02T02:01:00.617Z,4.41
2023-11-02T02:02:00.651Z,4.48
2023-11-02T02:03:00.736Z,4.45
2023-11-02T02:04:00.725Z,4.50
2023-11-02T02:05:00.745Z,4.50
2023-11-02T02:06:00.735Z,4.53
2023-11-02T02:07:00.748Z,4.55
2023-11-02T02:08:00.849Z,4.53
2023-11-02T02:09:00.802Z,4.52
2023-11-02T02:10:00.823Z,4.53
2023-11-02T02:11:00.813Z,4.55
2023-11-02T02:12:00.920Z,4.50
2023-11-02T02:13:00.858Z,4.48
2023-11-02T02:14:00.864Z,4.48
2023-11-02T02:15:00.916Z,4.42
2023-11-02T02:16:00.903Z,4.44
2023-11-02T02:17:00.931Z,4.44
2023-11-02T02:18:01.007Z,4.44
2023-11-02T02:19:00.999Z,4.42
2023-11-02T02:20:00.975Z,4.41
2023-11-02T02:21:01.037Z,4.40
2023-11-02T02:22:01.031Z,4.34
2023-11-02T02:23:01.021Z,4.28
2023-11-02T02:24:01.132Z,4.24
2023-11-02T02:25:01.057Z,4.26
2023-11-02T02:26:01.107Z,4.24
2023-11-02T02:27:01.174Z,4.24
2023-11-02T02:28:01.107Z,4.28
2023-11-02T02:29:01.123Z,4.23
2023-11-02T02:30:01.159Z,4.22
2023-11-02T02:31:01.180Z,4.20
2023-11-02T02:32:01.177Z,4.20
2023-11-02T02:33:01.224Z,4.20
2023-11-02T02:34:01.220Z,4.23
2023-11-02T02:35:01.257Z,4.22
2023-11-02T02:36:01.271Z,4.22
2023-11-02T02:37:01.260Z,4.24
2023-11-02T02:38:01.270Z,4.30
2023-11-02T02:39:01.307Z,4.30
2023-11-02T02:40:01.313Z,4.32
2023-11-02T02:41:01.318Z,4.32
2023-11-02T02:42:01.341Z,4.24
2023-11-02T02:43:01.334Z,4.24
2023-11-02T02:44:01.355Z,4.23
2023-11-02T02:45:01.412Z,4.23
2023-11-02T02:46:01.387Z,4.20
2023-11-02T02:47:01.397Z,4.14
2023-11-02T02:48:01.526Z,4.10
2023-11-02T02:49:01.515Z,4.06
2023-11-02T02:50:01.465Z,4.04
2023-11-02T02:51:01.509Z,4.01
2023-11-02T02:52:01.500Z,3.98
2023-11-02T02:53:01.514Z,3.86
2023-11-02T02:54:01.576Z,3.81
2023-11-02T02:55:01.542Z,3.81
2023-11-02T02:56:01.558Z,3.81
2023-11-02T02:57:01.647Z,3.83
2023-11-02T02:58:01.598Z,3.87
2023-11-02T02:59:01.631Z,3.91
2023-11-02T03:00:01.675Z,3.95
2023-11-02T03:01:01.641Z,3.98
2023-11-02T03:02:01.659Z,3.98
2023-11-02T03:03:01.822Z,4.02
2023-11-02T03:04:01.715Z,4.04
2023-11-02T03:05:01.745Z,4.02
2023-11-02T03:06:01.754Z,4.04
2023-11-02T03:07:01.735Z,4.05
2023-11-02T03:08:01.781Z,4.12
2023-11-02T03:09:01.782Z,4.16
2023-11-02T03:10:01.799Z,4.17
2023-11-02T03:11:09.419Z,4.17
2023-11-02T03:12:01.894Z,4.14
2023-11-02T03:13:01.868Z,4.10
2023-11-02T03:14:01.861Z,4.10
2023-11-02T03:15:01.905Z,4.14
2023-11-02T03:16:01.901Z,4.16
2023-11-02T03:17:07.705Z,4.23
2023-11-02T03:18:02.073Z,4.24
2023-11-02T03:19:02.005Z,4.28
2023-11-02T03:20:02.006Z,4.31
2023-11-02T03:21:01.988Z,4.35
2023-11-02T03:22:02.015Z,4.38
2023-11-02T03:23:02.013Z,4.44
2023-11-02T03:24:02.100Z,4.45
2023-11-02T03:25:02.109Z,4.45
2023-11-02T03:26:02.080Z,4.45
2023-11-02T03:27:02.211Z,4.45
2023-11-02T03:28:02.122Z,4.44
2023-11-02T03:29:02.122Z,4.42
2023-11-02T03:30:02.151Z,4.45
2023-11-02T03:31:02.162Z,4.48
2023-11-02T03:32:02.167Z,4.55
2023-11-02T03:33:02.250Z,4.56
2023-11-02T03:34:02.316Z,4.59
2023-11-02T03:35:02.204Z,4.59
2023-11-02T03:36:02.257Z,4.66
2023-11-02T03:37:02.234Z,4.71
2023-11-02T03:38:02.249Z,4.73
2023-11-02T03:39:02.294Z,4.73
2023-11-02T03:40:02.293Z,4.73
2023-11-02T03:41:02.321Z,4.75
2023-11-02T03:42:02.329Z,4.80
2023-11-02T03:43:02.341Z,4.87
2023-11-02T03:44:02.348Z,4.90
2023-11-02T03:45:02.452Z,4.93
2023-11-02T03:46:02.423Z,4.96
2023-11-02T03:47:02.421Z,5.00
2023-11-02T03:48:02.495Z,5.04
2023-11-02T03:49:02.540Z,5.07
2023-11-02T03:50:02.485Z,5.07
2023-11-02T03:51:02.515Z,5.08
2023-11-02T03:52:02.490Z,5.11
2023-11-02T03:53:02.512Z,5.15
2023-11-02T03:54:02.539Z,5.20
2023-11-02T03:55:02.546Z,5.25
2023-11-02T03:56:02.557Z,5.26
2023-11-02T03:57:02.597Z,5.29
2023-11-02T03:58:02.599Z,5.32
2023-11-02T03:59:02.640Z,5.30
2023-11-02T04:00:02.721Z,5.32
2023-11-02T04:01:02.661Z,5.35
2023-11-02T04:02:02.678Z,5.33
2023-11-02T04:03:02.833Z,5.35
2023-11-02T04:04:02.838Z,5.35
2023-11-02T04:05:02.735Z,5.32
2023-11-02T04:06:02.807Z,5.30
2023-11-02T04:07:02.843Z,5.32
2023-11-02T04:08:02.791Z,5.32
2023-11-02T04:09:02.853Z,5.36
2023-11-02T04:10:02.831Z,5.41
2023-11-02T04:11:02.850Z,5.44
2023-11-02T04:12:02.905Z,5.46
2023-11-02T04:13:02.906Z,5.51
2023-11-02T04:14:02.919Z,5.54
2023-11-02T04:15:03.137Z,5.59
2023-11-02T04:16:02.930Z,5.65
2023-11-02T04:17:02.967Z,5.73
2023-11-02T04:18:03.049Z,5.80
2023-11-02T04:19:03.074Z,5.83
2023-11-02T04:20:03.011Z,5.84
2023-11-02T04:21:03.054Z,5.87
2023-11-02T04:22:03.038Z,5.90
2023-11-02T04:23:03.070Z,5.97
2023-11-02T04:24:03.191Z,5.99
2023-11-02T04:25:03.096Z,6.01
2023-11-02T04:26:03.128Z,6.02
2023-11-02T04:27:03.192Z,6.04
2023-11-02T04:28:03.258Z,6.08
2023-11-02T04:29:03.163Z,6.11
2023-11-02T04:30:03.198Z,6.14
2023-11-02T04:31:03.223Z,6.17
2023-11-02T04:32:03.239Z,6.20
2023-11-02T04:33:03.286Z,6.24
2023-11-02T04:34:03.326Z,6.26
2023-11-02T04:35:03.267Z,6.27
2023-11-02T04:36:03.353Z,6.28
2023-11-02T04:37:03.325Z,6.28
2023-11-02T04:38:03.324Z,6.30
2023-11-02T04:39:03.518Z,6.33
2023-11-02T04:40:03.346Z,6.35
2023-11-02T04:41:03.398Z,6.35
2023-11-02T04:42:03.458Z,6.33
2023-11-02T04:43:03.418Z,6.35
2023-11-02T04:44:03.424Z,6.35
2023-11-02T04:45:03.600Z,6.33
2023-11-02T04:46:03.485Z,6.30
2023-11-02T04:47:03.486Z,6.31
2023-11-02T04:48:03.614Z,6.31
2023-11-02T04:49:03.546Z,6.33
2023-11-02T04:50:03.530Z,6.38
2023-11-02T04:51:03.594Z,6.38
2023-11-02T04:52:03.556Z,6.39
2023-11-02T04:53:03.568Z,6.39
2023-11-02T04:54:03.623Z,6.42
2023-11-02T04:55:03.631Z,6.42
2023-11-02T04:56:03.642Z,6.44
2023-11-02T04:57:03.725Z,6.42
2023-11-02T04:58:03.661Z,6.44
2023-11-02T04:59:03.679Z,6.46
2023-11-02T05:00:03.778Z,6.46
2023-11-02T05:01:03.714Z,6.46
2023-11-02T05:02:03.734Z,6.44
2023-11-02T05:03:03.864Z,6.44
2023-11-02T05:04:03.894Z,6.45
2023-11-02T05:05:03.807Z,6.46
2023-11-02T05:06:03.845Z,6.46
2023-11-02T05:07:03.831Z,6.46
2023-11-02T05:08:03.845Z,6.46
2023-11-02T05:09:03.961Z,6.45
2023-11-02T05:10:03.878Z,6.46
2023-11-02T05:11:03.891Z,6.49
2023-11-02T05:12:03.961Z,6.52
2023-11-02T05:13:03.952Z,6.56
2023-11-02T05:14:03.956Z,6.62
2023-11-02T05:15:03.994Z,6.63
2023-11-02T05:16:03.973Z,6.63
2023-11-02T05:17:03.992Z,6.64
2023-11-02T05:18:04.102Z,6.69
2023-11-02T05:19:04.061Z,6.69
2023-11-02T05:20:04.086Z,6.69
2023-11-02T05:21:04.078Z,6.70
2023-11-02T05:22:04.080Z,6.74
2023-11-02T05:23:04.113Z,6.72
2023-11-02T05:24:04.159Z,6.70
2023-11-02T05:25:04.119Z,6.67
2023-11-02T05:26:04.135Z,6.64
2023-11-02T05:27:04.234Z,6.63
2023-11-02T05:28:04.203Z,6.63
2023-11-02T05:29:04.200Z,6.63
2023-11-02T05:30:04.258Z,6.62
2023-11-02T05:31:04.236Z,6.60
2023-11-02T05:32:04.254Z,6.59
2023-11-02T05:33:04.361Z,6.60
2023-11-02T05:34:04.386Z,6.59
2023-11-02T05:35:04.342Z,6.59
2023-11-02T05:36:04.339Z,6.54
2023-11-02T05:37:04.366Z,6.52
2023-11-02T05:38:04.373Z,6.52
2023-11-02T05:39:04.382Z,6.52
2023-11-02T05:40:04.398Z,6.52
2023-11-02T05:41:04.409Z,6.56
2023-11-02T05:42:04.476Z,6.56
2023-11-02T05:43:04.496Z,6.57
2023-11-02T05:44:04.457Z,6.60
2023-11-02T05:45:04.527Z,6.60
2023-11-02T05:46:04.550Z,6.63
2023-11-02T05:47:04.533Z,6.67
2023-11-02T05:48:04.576Z,6.67
2023-11-02T05:49:04.635Z,6.69
2023-11-02T05:50:04.659Z,6.70
2023-11-02T05:51:04.642Z,6.74
2023-11-02T05:52:04.610Z,6.77
2023-11-02T05:53:04.605Z,6.77
2023-11-02T05:54:04.629Z,6.79
2023-11-02T05:55:04.645Z,6.81
2023-11-02T05:56:04.679Z,6.82
2023-11-02T05:57:04.702Z,6.84
2023-11-02T05:58:04.701Z,6.85
2023-11-02T05:59:04.725Z,6.87
2023-11-02T06:00:04.776Z,6.87
2023-11-02T06:01:04.779Z,6.85
2023-11-02T06:02:04.781Z,6.87
2023-11-02T06:03:04.890Z,6.84
2023-11-02T06:04:04.813Z,6.87
2023-11-02T06:05:04.885Z,6.85
2023-11-02T06:06:04.938Z,6.92
2023-11-02T06:07:05.034Z,6.93
2023-11-02T06:08:04.886Z,6.95
2023-11-02T06:09:04.930Z,6.97
2023-11-02T06:10:04.928Z,6.97
2023-11-02T06:11:04.991Z,6.96
2023-11-02T06:12:04.969Z,6.99
2023-11-02T06:13:04.973Z,7.05
2023-11-02T06:14:04.988Z,7.10
2023-11-02T06:15:05.054Z,7.11
2023-11-02T06:16:05.013Z,7.11
2023-11-02T06:17:05.028Z,7.18
2023-11-02T06:18:05.101Z,7.25
2023-11-02T06:19:05.119Z,7.29
2023-11-02T06:20:05.092Z,7.29
2023-11-02T06:21:05.130Z,7.29
2023-11-02T06:22:05.117Z,7.28
2023-11-02T06:23:05.276Z,7.31
2023-11-02T06:24:05.211Z,7.32
2023-11-02T06:25:05.182Z,7.33
2023-11-02T06:26:05.169Z,7.35
2023-11-02T06:27:05.215Z,7.36
2023-11-02T06:28:05.194Z,7.35
2023-11-02T06:29:05.238Z,7.35
2023-11-02T06:30:05.264Z,7.32
2023-11-02T06:31:05.275Z,7.33
2023-11-02T06:32:05.275Z,7.36
2023-11-02T06:33:05.480Z,7.39
2023-11-02T06:34:05.423Z,7.40
2023-11-02T06:35:05.334Z,7.42
2023-11-02T06:36:05.364Z,7.43
2023-11-02T06:37:05.375Z,7.54
2023-11-02T06:38:05.401Z,7.66
2023-11-02T06:39:05.422Z,7.69
2023-11-02T06:40:05.420Z,7.70
2023-11-02T06:41:05.455Z,7.72
2023-11-02T06:42:05.499Z,7.73
2023-11-02T06:43:05.501Z,7.73
2023-11-02T06:44:05.504Z,7.72
2023-11-02T06:45:05.524Z,7.72
2023-11-02T06:46:05.521Z,7.72
2023-11-02T06:47:05.562Z,7.72
2023-11-02T06:48:05.659Z,7.69
2023-11-02T06:49:06.119Z,7.69
2023-11-02T06:50:05.572Z,7.69
2023-11-02T06:51:05.626Z,7.69
2023-11-02T06:52:05.631Z,7.67
2023-11-02T06:53:05.675Z,7.67
2023-11-02T06:54:05.679Z,7.69
2023-11-02T06:55:05.663Z,7.66
2023-11-02T06:56:05.673Z,7.67
2023-11-02T06:57:05.739Z,7.67
2023-11-02T06:58:05.714Z,7.67
2023-11-02T06:59:05.741Z,7.67
2023-11-02T07:00:05.784Z,7.69
2023-11-02T07:01:05.793Z,7.72
2023-11-02T07:02:05.808Z,7.72
2023-11-02T07:03:05.886Z,7.73
2023-11-02T07:04:05.830Z,7.76
2023-11-02T07:05:06.037Z,7.77
2023-11-02T07:06:05.919Z,7.80
2023-11-02T07:07:05.967Z,7.83
2023-11-02T07:08:05.954Z,7.85
2023-11-02T07:09:05.932Z,7.88
2023-11-02T07:10:05.937Z,7.90
2023-11-02T07:11:05.974Z,7.91
2023-11-02T07:12:05.958Z,7.91
2023-11-02T07:13:05.970Z,7.91
2023-11-02T07:14:05.967Z,7.93
2023-11-02T07:15:06.036Z,7.93
2023-11-02T07:16:06.039Z,7.94
2023-11-02T07:17:06.055Z,7.94
2023-11-02T07:18:06.099Z,7.95
2023-11-02T07:19:06.227Z,7.98
2023-11-02T07:20:06.100Z,7.95
2023-11-02T07:21:06.127Z,7.97
2023-11-02T07:22:06.120Z,8.00
2023-11-02T07:23:06.140Z,8.03
2023-11-02T07:24:06.211Z,8.06
2023-11-02T07:25:06.210Z,8.10
2023-11-02T07:26:06.184Z,8.10
2023-11-02T07:27:06.231Z,8.13
2023-11-02T07:28:06.216Z,8.18
2023-11-02T07:29:06.264Z,8.18
2023-11-02T07:30:06.283Z,8.23
2023-11-02T07:31:06.268Z,8.28
2023-11-02T07:32:06.283Z,8.30
2023-11-02T07:33:06.348Z,8.37
2023-11-02T07:34:06.457Z,8.42
2023-11-02T07:35:06.362Z,8.44
2023-11-02T07:36:14.522Z,8.45
2023-11-02T07:37:06.415Z,8.46
2023-11-02T07:38:06.423Z,8.48
2023-11-02T07:39:06.463Z,8.48
2023-11-02T07:40:06.448Z,8.46
2023-11-02T07:41:06.453Z,8.46
2023-11-02T07:42:06.501Z,8.45
2023-11-02T07:43:06.499Z,8.46
2023-11-02T07:44:06.505Z,8.45
2023-11-02T07:45:06.538Z,8.44
2023-11-02T07:46:06.549Z,8.45
2023-11-02T07:47:06.551Z,8.48
2023-11-02T07:48:06.652Z,8.51
2023-11-02T07:49:06.695Z,8.51
2023-11-02T07:50:06.597Z,8.53
2023-11-02T07:51:06.624Z,8.53
2023-11-02T07:52:06.667Z,8.51
2023-11-02T07:53:06.664Z,8.52
2023-11-02T07:54:06.693Z,8.51
2023-11-02T07:55:06.675Z,8.51
2023-11-02T07:56:06.704Z,8.52
2023-11-02T07:57:06.749Z,8.53
2023-11-02T07:58:06.737Z,8.53
2023-11-02T07:59:06.773Z,8.56
2023-11-02T08:00:06.782Z,8.56
2023-11-02T08:01:06.786Z,8.58
2023-11-02T08:02:06.894Z,8.58
2023-11-02T08:03:06.854Z,8.55
2023-11-02T08:04:06.886Z,8.56
2023-11-02T08:05:06.851Z,8.60
2023-11-02T08:06:07.116Z,8.63
2023-11-02T08:07:07.266Z,8.63
2023-11-02T08:08:06.915Z,8.64
2023-11-02T08:09:06.945Z,8.63
2023-11-02T08:10:06.946Z,8.63
2023-11-02T08:11:06.971Z,8.63
2023-11-02T08:12:07.009Z,8.66
2023-11-02T08:13:06.995Z,8.69
2023-11-02T08:14:07.011Z,8.70
2023-11-02T08:15:07.076Z,8.71
2023-11-02T08:16:07.071Z,8.71
2023-11-02T08:17:07.053Z,8.73
2023-11-02T08:18:07.146Z,8.74
2023-11-02T08:19:07.315Z,8.79
2023-11-02T08:20:07.109Z,8.82
2023-11-02T08:21:07.143Z,8.91
2023-11-02T08:22:07.140Z,8.97
2023-11-02T08:23:07.165Z,9.00
2023-11-02T08:24:07.216Z,8.99
2023-11-02T08:25:07.225Z,9.03
2023-11-02T08:26:07.215Z,9.06
2023-11-02T08:27:07.294Z,9.11
2023-11-02T08:28:07.239Z,9.18
2023-11-02T08:29:07.247Z,9.22
2023-11-02T08:30:07.323Z,9.25
2023-11-02T08:31:07.290Z,9.26
2023-11-02T08:32:07.316Z,9.28
2023-11-02T08:33:07.430Z,9.32
2023-11-02T08:34:07.492Z,9.36
2023-11-02T08:35:07.390Z,9.39
2023-11-02T08:36:07.415Z,9.40
2023-11-02T08:37:07.408Z,9.41
2023-11-02T08:38:07.512Z,9.44
2023-11-02T08:39:07.488Z,9.46
2023-11-02T08:40:07.492Z,9.46
2023-11-02T08:41:07.495Z,9.46
2023-11-02T08:42:07.537Z,9.47
2023-11-02T08:43:07.512Z,9.46
2023-11-02T08:44:07.564Z,9.44
2023-11-02T08:45:07.600Z,9.44
2023-11-02T08:46:07.560Z,9.44
2023-11-02T08:47:07.574Z,9.44
2023-11-02T08:48:07.641Z,9.41
2023-11-02T08:49:07.771Z,9.43
2023-11-02T08:50:07.627Z,9.46
2023-11-02T08:51:07.678Z,9.47
2023-11-02T08:52:07.665Z,9.47
2023-11-02T08:53:07.697Z,9.47
2023-11-02T08:54:07.732Z,9.48
2023-11-02T08:55:07.699Z,9.50
2023-11-02T08:56:07.710Z,9.46
2023-11-02T08:57:07.769Z,9.46
2023-11-02T08:58:07.771Z,9.41
2023-11-02T08:59:07.771Z,9.43
2023-11-02T09:00:07.828Z,9.46
2023-11-02T09:01:07.797Z,9.48
2023-11-02T09:02:07.838Z,9.50
2023-11-02T09:03:07.882Z,9.48
2023-11-02T09:04:07.913Z,9.48
2023-11-02T09:05:08.077Z,9.50
2023-11-02T09:06:08.015Z,9.54
2023-11-02T09:07:07.928Z,9.51
2023-11-02T09:08:07.944Z,9.48
2023-11-02T09:09:07.957Z,9.48
2023-11-02T09:10:07.946Z,9.50
2023-11-02T09:11:07.955Z,9.50
2023-11-02T09:12:08.069Z,9.48
2023-11-02T09:13:08.003Z,9.50
2023-11-02T09:14:08.033Z,9.51
2023-11-02T09:15:08.127Z,9.51
2023-11-02T09:16:08.062Z,9.55
2023-11-02T09:17:08.086Z,9.56
2023-11-02T09:18:08.176Z,9.58
2023-11-02T09:19:08.105Z,9.59
2023-11-02T09:20:08.121Z,9.59
2023-11-02T09:21:08.195Z,9.59
2023-11-02T09:22:08.222Z,9.58
2023-11-02T09:23:08.165Z,9.58
2023-11-02T09:24:08.223Z,9.56
2023-11-02T09:25:08.206Z,9.56
2023-11-02T09:26:08.247Z,9.55
2023-11-02T09:27:08.256Z,9.55
2023-11-02T09:28:08.253Z,9.56
2023-11-02T09:29:08.280Z,9.58
2023-11-02T09:30:08.308Z,9.58
2023-11-02T09:31:08.370Z,9.58
2023-11-02T09:32:08.334Z,9.56
2023-11-02T09:33:08.441Z,9.55
2023-11-02T09:34:08.402Z,9.58
2023-11-02T09:35:08.384Z,9.64
2023-11-02T09:36:08.399Z,9.64
2023-11-02T09:37:08.407Z,9.66
2023-11-02T09:38:08.416Z,9.68
2023-11-02T09:39:08.469Z,9.69
2023-11-02T09:40:08.487Z,9.72
2023-11-02T09:41:08.456Z,9.73
2023-11-02T09:42:08.515Z,9.76
2023-11-02T09:43:08.490Z,9.77
2023-11-02T09:44:08.532Z,9.76
2023-11-02T09:45:08.606Z,9.79
2023-11-02T09:46:08.548Z,9.83
2023-11-02T09:47:08.565Z,9.87
2023-11-02T09:48:08.684Z,9.91
2023-11-02T09:49:08.703Z,9.95
2023-11-02T09:50:08.609Z,9.95
2023-11-02T09:51:08.668Z,9.98
2023-11-02T09:52:08.652Z,9.99
2023-11-02T09:53:08.708Z,10.01
2023-11-02T09:54:08.737Z,9.99
2023-11-02T09:55:08.755Z,10.01
2023-11-02T09:56:08.736Z,9.98
2023-11-02T09:57:08.800Z,9.99
2023-11-02T09:58:08.772Z,10.02
2023-11-02T09:59:08.790Z,10.02
2023-11-02T10:00:08.829Z,10.01
2023-11-02T10:01:08.796Z,9.98
2023-11-02T10:02:08.821Z,9.99
2023-11-02T10:03:08.930Z,9.98
2023-11-02T10:04:08.878Z,9.98
2023-11-02T10:05:08.896Z,9.95
2023-11-02T10:06:09.088Z,9.92
2023-11-02T10:07:08.940Z,9.95
2023-11-02T10:08:08.948Z,9.97
2023-11-02T10:09:08.941Z,9.97
2023-11-02T10:10:09.005Z,9.92
2023-11-02T10:11:08.978Z,9.87
2023-11-02T10:12:09.048Z,9.84
2023-11-02T10:13:09.008Z,9.84
2023-11-02T10:14:09.040Z,9.77
2023-11-02T10:15:09.076Z,9.76
2023-11-02T10:16:09.077Z,9.74
2023-11-02T10:17:09.094Z,9.76
2023-11-02T10:18:09.208Z,9.77
2023-11-02T10:19:09.257Z,9.76
2023-11-02T10:20:09.236Z,9.76
2023-11-02T10:21:09.228Z,9.74
2023-11-02T10:22:09.184Z,9.72
2023-11-02T10:23:09.178Z,9.69
2023-11-02T10:24:09.269Z,9.66
2023-11-02T10:25:09.210Z,9.65
2023-11-02T10:26:09.251Z,9.64
2023-11-02T10:27:09.379Z,9.65
2023-11-02T10:28:11.940Z,9.64
2023-11-02T10:29:09.313Z,9.62
2023-11-02T10:30:09.378Z,9.65
2023-11-02T10:31:09.443Z,9.61
2023-11-02T10:32:09.331Z,9.59
2023-11-02T10:33:09.408Z,9.59
2023-11-02T10:34:09.404Z,9.59
2023-11-02T10:35:09.426Z,9.56
2023-11-02T10:36:09.418Z,9.55
2023-11-02T10:37:09.404Z,9.55
2023-11-02T10:38:09.435Z,9.56
2023-11-02T10:39:09.484Z,9.56
2023-11-02T10:40:09.475Z,9.55
2023-11-02T10:41:09.498Z,9.55
2023-11-02T10:42:09.624Z,9.55
2023-11-02T10:43:09.512Z,9.50
2023-11-02T10:44:09.559Z,9.50
2023-11-02T10:45:09.600Z,9.48
2023-11-02T10:46:09.573Z,9.51
2023-11-02T10:47:09.592Z,9.51
2023-11-02T10:48:09.666Z,9.54
2023-11-02T10:49:09.785Z,9.50
2023-11-02T10:50:09.692Z,9.54
2023-11-02T10:51:09.710Z,9.55
2023-11-02T10:52:09.863Z,9.54
2023-11-02T10:53:09.702Z,9.51
2023-11-02T10:54:09.819Z,9.51
2023-11-02T10:55:09.746Z,9.54
2023-11-02T10:56:09.763Z,9.55
2023-11-02T10:57:09.798Z,9.56
2023-11-02T10:58:09.790Z,9.59
2023-11-02T10:59:09.826Z,9.58
2023-11-02T11:00:09.853Z,9.58
2023-11-02T11:01:09.832Z,9.59
2023-11-02T11:02:09.866Z,9.58
2023-11-02T11:03:09.967Z,9.59
2023-11-02T11:04:09.995Z,9.62
2023-11-02T11:05:09.909Z,9.62
2023-11-02T11:06:10.040Z,9.64
2023-11-02T11:07:10.008Z,9.64
2023-11-02T11:08:09.993Z,9.65
2023-11-02T11:09:10.005Z,9.66
2023-11-02T11:10:12.079Z,9.65
2023-11-02T11:11:10.009Z,9.66
2023-11-02T11:12:10.106Z,9.66
2023-11-02T11:13:10.059Z,9.66
2023-11-02T11:14:10.105Z,9.66
2023-11-02T11:15:10.163Z,9.66
2023-11-02T11:16:12.576Z,9.66
2023-11-02T11:17:10.129Z,9.66
2023-11-02T11:18:10.263Z,9.66
2023-11-02T11:19:10.285Z,9.68
2023-11-02T11:20:10.164Z,9.68
2023-11-02T11:21:10.211Z,9.68
2023-11-02T11:22:12.318Z,9.72
2023-11-02T11:23:10.212Z,9.72
2023-11-02T11:24:10.261Z,9.74
2023-11-02T11:25:10.257Z,9.74
2023-11-02T11:26:10.298Z,9.76
2023-11-02T11:27:10.374Z,9.77
2023-11-02T11:28:10.304Z,9.79
2023-11-02T11:29:10.320Z,9.76
2023-11-02T11:30:11.214Z,9.74
2023-11-02T11:31:10.361Z,9.74
2023-11-02T11:32:10.363Z,9.73
2023-11-02T11:33:10.456Z,9.69
2023-11-02T11:34:10.428Z,9.66
2023-11-02T11:35:10.500Z,9.68
2023-11-02T11:36:10.505Z,9.72
2023-11-02T11:37:10.448Z,9.65
2023-11-02T11:38:10.473Z,9.66
2023-11-02T11:39:10.532Z,9.64
2023-11-02T11:40:10.575Z,9.59
2023-11-02T11:41:10.495Z,9.55
2023-11-02T11:42:10.547Z,9.51
2023-11-02T11:43:10.553Z,9.50
2023-11-02T11:44:10.585Z,9.48
2023-11-02T11:45:10.600Z,9.47
2023-11-02T11:46:10.596Z,9.47
2023-11-02T11:47:10.628Z,9.47
2023-11-02T11:48:11.205Z,9.50
2023-11-02T11:49:10.696Z,9.51
2023-11-02T11:50:10.682Z,9.55
2023-11-02T11:51:10.717Z,9.58
2023-11-02T11:52:12.569Z,9.61
2023-11-02T11:53:10.719Z,9.64
2023-11-02T11:54:10.823Z,9.65
2023-11-02T11:55:10.807Z,9.65
2023-11-02T11:56:10.770Z,9.64
2023-11-02T11:57:10.811Z,9.65
2023-11-02T11:58:10.814Z,9.65
2023-11-02T11:59:10.852Z,9.66
2023-11-02T12:00:10.856Z,9.64
2023-11-02T12:01:10.845Z,9.61
2023-11-02T12:02:10.865Z,9.61
2023-11-02T12:03:10.982Z,9.61
2023-11-02T12:04:10.909Z,9.62
2023-11-02T12:05:10.937Z,9.62
2023-11-02T12:06:10.999Z,9.55
2023-11-02T12:07:10.986Z,9.54
2023-11-02T12:08:10.997Z,9.55
2023-11-02T12:09:11.268Z,9.54
2023-11-02T12:10:11.544Z,9.51
2023-11-02T12:11:11.047Z,9.55
2023-11-02T12:12:11.081Z,9.51
2023-11-02T12:13:11.094Z,9.48
2023-11-02T12:14:11.129Z,9.46
2023-11-02T12:15:11.219Z,9.47
2023-11-02T12:16:11.127Z,9.44
2023-11-02T12:17:11.147Z,9.43
2023-11-02T12:18:11.232Z,9.41
2023-11-02T12:19:11.229Z,9.39
2023-11-02T12:20:11.806Z,9.40
2023-11-02T12:21:11.264Z,9.40
2023-11-02T12:22:11.239Z,9.40
2023-11-02T12:23:11.249Z,9.41
2023-11-02T12:24:11.345Z,9.40
2023-11-02T12:25:11.259Z,9.40
2023-11-02T12:26:11.268Z,9.43
2023-11-02T12:27:11.360Z,9.40
2023-11-02T12:28:11.312Z,9.40
2023-11-02T12:29:11.420Z,9.40
2023-11-02T12:30:11.413Z,9.36
2023-11-02T12:31:11.373Z,9.34
2023-11-02T12:32:11.413Z,9.34
2023-11-02T12:33:11.450Z,9.36
2023-11-02T12:34:11.426Z,9.37
2023-11-02T12:35:11.482Z,9.37
2023-11-02T12:36:11.457Z,9.41
2023-11-02T12:37:11.488Z,9.46
2023-11-02T12:38:11.492Z,9.46
2023-11-02T12:39:11.712Z,9.48
2023-11-02T12:40:11.519Z,9.50
2023-11-02T12:41:11.554Z,9.48
2023-11-02T12:42:11.547Z,9.46
2023-11-02T12:43:11.571Z,9.43
2023-11-02T12:44:11.611Z,9.46
2023-11-02T12:45:11.670Z,9.44
2023-11-02T12:46:11.639Z,9.41
2023-11-02T12:47:11.642Z,9.43
2023-11-02T12:48:11.769Z,9.43
2023-11-02T12:49:11.881Z,9.40
2023-11-02T12:50:11.737Z,9.39
2023-11-02T12:51:11.743Z,9.40
2023-11-02T12:52:11.718Z,9.40
2023-11-02T12:53:11.732Z,9.39
2023-11-02T12:54:11.756Z,9.40
2023-11-02T12:55:11.795Z,9.40
2023-11-02T12:56:11.788Z,9.39
2023-11-02T12:57:11.841Z,9.39
2023-11-02T12:58:11.830Z,9.39
2023-11-02T12:59:11.860Z,9.39
2023-11-02T13:00:12.922Z,9.37
2023-11-02T13:01:11.889Z,9.36
2023-11-02T13:02:11.904Z,9.36
2023-11-02T13:03:11.938Z,9.36
2023-11-02T13:04:12.044Z,9.34
2023-11-02T13:05:11.961Z,9.34
2023-11-02T13:06:12.009Z,9.32
2023-11-02T13:07:11.994Z,9.32
2023-11-02T13:08:12.004Z,9.31
2023-11-02T13:09:12.052Z,9.29
2023-11-02T13:10:12.064Z,9.29
2023-11-02T13:11:12.061Z,9.31
2023-11-02T13:12:12.063Z,9.29
2023-11-02T13:13:12.104Z,9.31
2023-11-02T13:14:12.151Z,9.29
2023-11-02T13:15:12.127Z,9.28
2023-11-02T13:16:12.136Z,9.26
2023-11-02T13:17:12.164Z,9.26
2023-11-02T13:18:12.219Z,9.25
2023-11-02T13:19:12.269Z,9.25